Time;durP1;ratioP1;P1;durP2;ratioP2;P2;SDS_P1;SDS_P2;PMS_P1;PMS_P2;Temp;Humidity;BMP_temperature;BMP_pressure;BME280_temperature;BME280_humidity;BME280_pressure;Samples;Min_cycle;Max_cycle;Signal;HPM_P1;HPM_P2
2022/11/15 00:00:09;;;;;;;21.83;14.27;;;6.60;99.90;;;;;;5063250;28;20201;-68
2022/11/15 00:02:36;;;;;;;17.93;13.07;;;6.60;99.90;;;;;;5063943;28;20200;-68
2022/11/15 00:05:03;;;;;;;18.30;13.20;;;6.60;99.90;;;;;;5062868;28;20205;-69
2022/11/15 00:07:31;;;;;;;19.43;13.80;;;6.60;99.90;;;;;;5054010;28;20294;-69
2022/11/15 00:09:58;;;;;;;18.87;13.57;;;6.60;99.90;;;;;;5063806;28;20225;-67
2022/11/15 00:12:24;;;;;;;20.63;13.70;;;6.60;99.90;;;;;;5063371;28;20202;-68
2022/11/15 00:14:51;;;;;;;19.20;13.10;;;6.60;99.90;;;;;;5062845;28;20205;-69
2022/11/15 00:17:18;;;;;;;20.73;14.00;;;6.70;99.90;;;;;;5062477;28;20210;-68
2022/11/15 00:19:45;;;;;;;21.60;13.87;;;6.70;99.90;;;;;;5063204;28;20220;-68
2022/11/15 00:22:12;;;;;;;18.83;13.00;;;6.70;99.90;;;;;;5063613;28;20210;-68
2022/11/15 00:24:40;;;;;;;19.40;14.20;;;6.70;99.90;;;;;;5064438;28;20216;-69
2022/11/15 00:27:06;;;;;;;18.73;13.30;;;6.80;99.90;;;;;;5062772;28;20298;-68
2022/11/15 00:29:33;;;;;;;17.73;13.03;;;6.80;99.90;;;;;;5067760;28;20236;-68
2022/11/15 00:32:00;;;;;;;19.97;14.30;;;6.70;99.90;;;;;;5068295;28;20265;-68
2022/11/15 00:34:27;;;;;;;20.63;13.97;;;6.80;99.90;;;;;;5064721;28;20617;-69
2022/11/15 00:36:53;;;;;;;23.60;13.77;;;6.80;99.90;;;;;;5059775;28;20207;-68
2022/11/15 00:39:20;;;;;;;24.30;13.93;;;6.70;99.90;;;;;;5061590;28;20206;-69
2022/11/15 00:41:49;;;;;;;20.53;14.17;;;6.70;99.90;;;;;;5067881;28;20196;-69
2022/11/15 00:44:15;;;;;;;19.57;14.10;;;6.70;99.90;;;;;;5072297;28;20187;-69
2022/11/15 00:46:42;;;;;;;23.93;15.10;;;6.70;99.90;;;;;;5075189;28;20194;-69
2022/11/15 00:49:09;;;;;;;19.90;14.27;;;6.80;99.90;;;;;;5064555;22;20284;-68
2022/11/15 00:51:36;;;;;;;23.90;14.87;;;6.80;99.90;;;;;;5036113;28;20191;-69
2022/11/15 00:54:03;;;;;;;23.57;14.33;;;6.80;99.90;;;;;;5035962;28;20203;-70
2022/11/15 00:56:30;;;;;;;23.83;15.10;;;6.80;99.90;;;;;;5036295;28;20187;-69
2022/11/15 00:58:58;;;;;;;22.70;15.17;;;6.70;99.90;;;;;;5036594;28;20212;-68
2022/11/15 01:01:25;;;;;;;24.53;15.13;;;6.70;99.90;;;;;;5048034;22;20231;-69
2022/11/15 01:03:52;;;;;;;24.03;16.00;;;6.70;99.90;;;;;;5035279;28;20218;-69
2022/11/15 01:06:18;;;;;;;22.83;15.57;;;6.80;99.90;;;;;;5056668;28;20251;-70
2022/11/15 01:08:45;;;;;;;24.67;16.57;;;6.70;99.90;;;;;;5056885;28;20221;-69
2022/11/15 01:11:13;;;;;;;26.80;16.97;;;6.70;99.90;;;;;;5064474;22;20249;-70
2022/11/15 01:13:40;;;;;;;26.40;16.30;;;6.70;99.90;;;;;;5034780;28;20310;-69
2022/11/15 01:16:10;;;;;;;24.37;16.17;;;6.70;99.90;;;;;;5036716;28;20200;-69
2022/11/15 01:18:37;;;;;;;25.60;16.50;;;6.70;99.90;;;;;;5036281;28;20199;-69
2022/11/15 01:21:07;;;;;;;23.70;15.87;;;6.70;99.90;;;;;;5034935;28;20198;-69
2022/11/15 01:23:34;;;;;;;26.17;17.10;;;6.70;99.90;;;;;;5033992;28;20187;-69
2022/11/15 01:26:01;;;;;;;25.90;16.57;;;6.70;99.90;;;;;;5036669;28;20222;-69
2022/11/15 01:28:32;;;;;;;25.63;17.13;;;6.70;99.90;;;;;;5036597;28;20207;-70
2022/11/15 01:31:00;;;;;;;29.13;17.27;;;6.70;99.90;;;;;;5035812;28;20211;-69
2022/11/15 01:33:28;;;;;;;29.07;18.37;;;6.70;99.90;;;;;;5034413;28;20207;-70
2022/11/15 01:35:56;;;;;;;30.40;18.07;;;6.60;99.90;;;;;;5033520;28;20198;-71
2022/11/15 01:38:23;;;;;;;29.60;17.73;;;6.60;99.90;;;;;;5036069;28;20189;-69
2022/11/15 01:40:50;;;;;;;31.57;17.90;;;6.70;99.90;;;;;;5036170;28;20394;-70
2022/11/15 01:43:22;;;;;;;28.80;17.83;;;6.70;99.90;;;;;;5035990;28;20267;-73
2022/11/15 01:45:53;;;;;;;28.50;17.80;;;6.70;99.90;;;;;;5036055;28;20211;-69
2022/11/15 01:48:21;;;;;;;32.93;18.50;;;6.70;99.90;;;;;;5036384;28;20219;-70
2022/11/15 01:50:50;;;;;;;29.77;17.70;;;6.70;99.90;;;;;;5036517;28;20219;-71
2022/11/15 01:53:20;;;;;;;28.70;17.07;;;6.70;99.90;;;;;;5030198;28;20210;-69
2022/11/15 01:55:47;;;;;;;31.00;18.10;;;6.70;99.90;;;;;;5027320;28;20199;-69
2022/11/15 01:58:14;;;;;;;31.00;19.50;;;6.70;99.90;;;;;;5027614;28;20207;-71
2022/11/15 02:00:41;;;;;;;30.83;18.13;;;6.70;99.90;;;;;;5023530;28;20227;-70
2022/11/15 02:03:08;;;;;;;28.30;17.80;;;6.70;99.90;;;;;;5019843;28;20211;-71
2022/11/15 02:05:37;;;;;;;27.83;17.10;;;6.60;99.90;;;;;;5018053;28;20286;-68
2022/11/15 02:08:07;;;;;;;29.77;18.33;;;6.70;99.90;;;;;;5016516;28;20657;-69
2022/11/15 02:10:34;;;;;;;29.73;17.63;;;6.70;99.90;;;;;;5013140;28;20239;-70
2022/11/15 02:13:02;;;;;;;31.10;18.10;;;6.70;99.90;;;;;;5018975;28;20207;-70
2022/11/15 02:15:35;;;;;;;27.17;16.93;;;6.70;99.90;;;;;;5020689;28;20210;-70
2022/11/15 02:18:16;;;;;;;27.17;17.37;;;6.70;99.90;;;;;;5027471;28;20207;-70
2022/11/15 02:20:56;;;;;;;29.43;17.50;;;6.80;99.90;;;;;;5028397;28;20183;-69
2022/11/15 02:24:00;;;;;;;29.30;17.83;;;6.80;99.90;;;;;;5027068;28;20628;-69
2022/11/15 02:26:53;;;;;;;28.13;17.40;;;6.80;99.90;;;;;;5026665;28;20271;-71
2022/11/15 02:29:33;;;;;;;26.63;17.63;;;6.80;99.90;;;;;;5029876;28;20239;-71
2022/11/15 02:32:07;;;;;;;30.10;18.30;;;6.80;99.90;;;;;;5026050;28;20275;-70
2022/11/15 02:34:42;;;;;;;29.73;17.03;;;6.80;99.90;;;;;;5028746;28;20196;-70
2022/11/15 02:37:16;;;;;;;32.97;17.63;;;6.80;99.90;;;;;;5015169;28;20202;-72
2022/11/15 02:39:52;;;;;;;27.77;17.87;;;6.80;99.90;;;;;;5014418;28;20195;-75
2022/11/15 02:45:11;;;;;;;28.33;17.27;;;6.80;99.90;;;;;;5022087;28;20226;-70
2022/11/15 02:47:44;;;;;;;29.93;18.03;;;6.70;99.90;;;;;;5025979;28;20567;-70
2022/11/15 02:50:14;;;;;;;26.67;17.27;;;6.70;99.90;;;;;;5020717;28;20225;-70
2022/11/15 02:52:41;;;;;;;30.43;17.97;;;6.70;99.90;;;;;;5013297;28;20218;-68
2022/11/15 02:55:29;;;;;;;29.63;17.87;;;6.60;99.90;;;;;;5019698;28;20211;-68
2022/11/15 02:58:17;;;;;;;32.70;19.60;;;6.60;99.90;;;;;;5015950;28;20211;-68
2022/11/15 03:00:51;;;;;;;30.37;18.40;;;6.60;99.90;;;;;;5003581;28;20230;-69
2022/11/15 03:03:37;;;;;;;28.67;17.80;;;6.60;99.90;;;;;;5014014;28;20213;-69
2022/11/15 03:06:13;;;;;;;31.87;19.50;;;6.60;99.90;;;;;;5014623;28;20237;-68
2022/11/15 03:08:48;;;;;;;32.90;20.17;;;6.60;99.90;;;;;;5022127;28;20206;-69
2022/11/15 03:11:17;;;;;;;32.60;19.23;;;6.60;99.90;;;;;;5028183;28;20274;-69
2022/11/15 03:13:52;;;;;;;32.63;20.57;;;6.60;99.90;;;;;;5031390;28;20207;-68
2022/11/15 03:16:25;;;;;;;32.40;20.00;;;6.60;99.90;;;;;;5033990;28;20198;-68
2022/11/15 03:18:58;;;;;;;33.70;20.43;;;6.60;99.90;;;;;;5032733;28;20200;-69
2022/11/15 03:21:26;;;;;;;33.10;19.47;;;6.60;99.90;;;;;;5033764;28;20263;-69
2022/11/15 03:23:55;;;;;;;32.53;20.03;;;6.60;99.90;;;;;;5032738;28;20217;-70
2022/11/15 03:26:23;;;;;;;33.53;20.13;;;6.60;99.90;;;;;;5028079;28;20198;-68
2022/11/15 03:28:54;;;;;;;33.33;20.17;;;6.60;99.90;;;;;;5020124;28;20582;-68
2022/11/15 03:34:15;;;;;;;34.60;20.10;;;6.60;99.90;;;;;;5020706;28;20261;-70
2022/11/15 03:36:42;;;;;;;30.87;19.93;;;6.60;99.90;;;;;;5022990;28;20217;-69
2022/11/15 03:39:10;;;;;;;31.47;20.20;;;6.60;99.90;;;;;;5024706;28;20209;-70
2022/11/15 03:41:41;;;;;;;33.53;19.67;;;6.60;99.90;;;;;;5022582;28;20190;-69
2022/11/15 03:44:17;;;;;;;36.00;20.77;;;6.60;99.90;;;;;;5029268;28;20179;-68
2022/11/15 03:46:49;;;;;;;35.63;20.73;;;6.60;99.90;;;;;;5013105;28;20276;-70
2022/11/15 03:49:24;;;;;;;35.03;21.20;;;6.60;99.90;;;;;;5012216;28;20615;-69
2022/11/15 03:51:51;;;;;;;36.17;21.70;;;6.60;99.90;;;;;;5012675;28;20220;-68
2022/11/15 03:54:18;;;;;;;37.03;21.57;;;6.60;99.90;;;;;;5012139;28;20225;-68
2022/11/15 03:56:45;;;;;;;34.37;20.13;;;6.60;99.90;;;;;;5011039;28;20583;-70
2022/11/15 03:59:12;;;;;;;37.93;21.73;;;6.60;99.90;;;;;;5010869;28;20257;-69
2022/11/15 04:01:38;;;;;;;36.60;22.00;;;6.60;99.90;;;;;;5008602;28;20301;-68
2022/11/15 04:04:05;;;;;;;37.20;20.40;;;6.60;99.90;;;;;;5009117;28;20215;-68
2022/11/15 04:06:33;;;;;;;36.33;21.67;;;6.70;99.90;;;;;;5015506;28;20214;-68
2022/11/15 04:09:00;;;;;;;34.43;20.80;;;6.60;99.90;;;;;;5015262;28;20215;-69
2022/11/15 04:11:27;;;;;;;34.13;20.93;;;6.60;99.90;;;;;;5014725;28;20249;-69
2022/11/15 04:13:54;;;;;;;36.67;20.13;;;6.60;99.90;;;;;;5015751;28;20203;-68
2022/11/15 04:16:21;;;;;;;35.37;19.97;;;6.60;99.90;;;;;;5014125;28;20476;-68
2022/11/15 04:24:11;;;;;;;32.70;20.37;;;6.60;99.90;;;;;;5013743;28;20211;-69
2022/11/15 04:24:20;;;;;;;35.33;20.63;;;6.60;99.90;;;;;;5015339;28;20214;-68
2022/11/15 04:26:47;;;;;;;35.13;20.27;;;6.60;99.90;;;;;;5014274;28;20213;-69
2022/11/15 04:31:58;;;;;;;35.90;20.63;;;6.60;99.90;;;;;;5012828;28;20214;-67
2022/11/15 04:34:25;;;;;;;35.10;20.00;;;6.70;99.90;;;;;;5012218;28;20247;-68
2022/11/15 04:39:37;;;;;;;34.40;19.53;;;6.70;99.90;;;;;;5011072;28;20206;-70
2022/11/15 04:42:04;;;;;;;40.43;22.07;;;6.70;99.90;;;;;;5014055;28;20227;-68
2022/11/15 04:44:31;;;;;;;35.77;20.43;;;6.70;99.90;;;;;;5014536;28;20222;-68
2022/11/15 04:46:57;;;;;;;35.50;21.00;;;6.60;99.90;;;;;;5014018;28;20207;-68
2022/11/15 04:49:24;;;;;;;38.57;20.90;;;6.60;99.90;;;;;;5014928;28;20555;-68
2022/11/15 04:51:53;;;;;;;35.33;20.83;;;6.50;99.90;;;;;;5021766;28;20217;-69
2022/11/15 04:54:19;;;;;;;34.77;20.03;;;6.50;99.90;;;;;;5018095;28;20250;-68
2022/11/15 04:56:46;;;;;;;33.90;19.90;;;6.60;99.90;;;;;;5016771;28;20215;-67
2022/11/15 04:59:13;;;;;;;32.03;18.90;;;6.60;99.90;;;;;;5018721;28;20610;-69
2022/11/15 05:01:40;;;;;;;35.97;19.10;;;6.60;99.90;;;;;;5013490;28;20214;-69
2022/11/15 05:04:18;;;;;;;33.43;18.53;;;6.60;99.90;;;;;;5018343;28;20207;-69
2022/11/15 05:06:45;;;;;;;35.20;18.73;;;6.60;99.90;;;;;;5010838;28;20210;-69
2022/11/15 05:09:14;;;;;;;35.93;19.60;;;6.60;99.90;;;;;;5017832;28;20561;-69
2022/11/15 05:11:41;;;;;;;34.83;19.90;;;6.60;99.90;;;;;;5016467;28;21621;-69
2022/11/15 05:14:08;;;;;;;33.80;19.13;;;6.60;99.90;;;;;;5012181;28;20557;-71
2022/11/15 05:16:35;;;;;;;42.33;20.23;;;6.70;99.90;;;;;;5016383;28;20218;-67
2022/11/15 05:19:02;;;;;;;36.10;20.70;;;6.60;99.90;;;;;;5015089;28;20286;-68
2022/11/15 05:21:29;;;;;;;34.10;19.20;;;6.50;99.90;;;;;;5012796;28;20203;-68
2022/11/15 05:23:56;;;;;;;36.53;19.90;;;6.50;99.90;;;;;;5012334;28;20211;-69
2022/11/15 05:26:24;;;;;;;36.70;19.53;;;6.50;99.90;;;;;;5013704;28;20218;-68
2022/11/15 05:28:53;;;;;;;36.17;20.17;;;6.50;99.90;;;;;;5015322;28;20226;-69
2022/11/15 05:31:20;;;;;;;36.67;19.60;;;6.50;99.90;;;;;;5012287;28;20227;-70
2022/11/15 05:33:49;;;;;;;38.07;19.93;;;6.40;99.90;;;;;;5010956;28;20258;-68
2022/11/15 05:36:21;;;;;;;38.60;19.43;;;6.40;99.90;;;;;;5012724;28;20227;-69
2022/11/15 05:38:48;;;;;;;38.27;20.07;;;6.30;99.90;;;;;;5013263;28;20674;-70
2022/11/15 05:41:17;;;;;;;41.47;21.03;;;6.30;99.90;;;;;;5012831;28;20284;-70
2022/11/15 05:43:46;;;;;;;36.33;19.37;;;6.30;99.90;;;;;;5013166;28;20216;-68
2022/11/15 05:46:14;;;;;;;38.00;20.67;;;6.30;99.90;;;;;;5012355;28;20668;-69
2022/11/15 05:48:45;;;;;;;37.87;20.33;;;6.30;99.90;;;;;;5017122;28;20234;-68
2022/11/15 05:51:15;;;;;;;35.20;19.97;;;6.50;99.90;;;;;;5018540;28;20666;-68
2022/11/15 05:53:42;;;;;;;35.80;19.33;;;6.40;99.90;;;;;;5015229;28;20203;-67
2022/11/15 05:56:10;;;;;;;37.83;20.37;;;6.40;99.90;;;;;;5017439;28;20212;-68
2022/11/15 05:58:38;;;;;;;37.17;18.43;;;6.50;99.90;;;;;;5016210;28;20204;-66
2022/11/15 06:01:07;;;;;;;33.77;18.70;;;6.50;99.90;;;;;;5013020;28;20224;-68
2022/11/15 06:03:33;;;;;;;34.77;18.60;;;6.40;99.90;;;;;;5010630;28;20219;-66
2022/11/15 06:06:00;;;;;;;38.87;21.00;;;6.40;99.90;;;;;;5012638;28;20718;-66
2022/11/15 06:08:27;;;;;;;36.00;20.20;;;6.40;99.90;;;;;;5013594;28;20199;-66
2022/11/15 06:10:54;;;;;;;40.70;21.00;;;6.40;99.90;;;;;;5017485;28;20606;-66
2022/11/15 06:13:21;;;;;;;41.47;22.10;;;6.40;99.90;;;;;;5016038;28;20211;-66
2022/11/15 06:15:48;;;;;;;41.50;23.27;;;6.40;99.90;;;;;;5010420;28;20664;-66
2022/11/15 06:18:16;;;;;;;38.47;21.17;;;6.40;99.90;;;;;;5012865;28;20207;-66
2022/11/15 06:20:43;;;;;;;40.27;20.83;;;6.50;99.90;;;;;;5011753;28;20690;-66
2022/11/15 06:23:09;;;;;;;35.80;19.20;;;6.50;99.90;;;;;;5012369;28;20218;-64
2022/11/15 06:25:36;;;;;;;36.57;20.70;;;6.50;99.90;;;;;;5012314;28;20211;-66
2022/11/15 06:28:03;;;;;;;36.80;18.70;;;6.50;99.90;;;;;;5013555;28;20211;-66
2022/11/15 06:30:30;;;;;;;36.77;19.80;;;6.50;99.90;;;;;;5013003;28;20722;-66
2022/11/15 06:33:01;;;;;;;34.37;18.10;;;6.50;99.90;;;;;;5008693;28;20207;-68
2022/11/15 06:35:30;;;;;;;30.00;16.53;;;6.50;99.90;;;;;;5012028;28;20207;-67
2022/11/15 06:38:02;;;;;;;31.43;16.63;;;6.50;99.90;;;;;;5020596;28;20222;-67
2022/11/15 06:40:29;;;;;;;29.77;16.43;;;6.50;99.90;;;;;;5019649;28;20207;-72
2022/11/15 06:42:59;;;;;;;29.07;15.80;;;6.50;99.90;;;;;;5026829;28;20207;-74
2022/11/15 06:45:26;;;;;;;29.63;16.20;;;6.50;99.90;;;;;;5022753;28;20199;-72
2022/11/15 06:47:52;;;;;;;31.47;18.07;;;6.50;99.90;;;;;;5022286;28;20211;-72
2022/11/15 06:50:19;;;;;;;29.30;16.40;;;6.50;99.90;;;;;;4998012;28;20314;-71
2022/11/15 06:52:48;;;;;;;30.47;15.43;;;6.50;99.90;;;;;;5013329;28;20207;-71
2022/11/15 06:55:15;;;;;;;33.47;16.27;;;6.40;99.90;;;;;;5013271;28;20210;-70
2022/11/15 06:57:48;;;;;;;30.23;16.73;;;6.40;99.90;;;;;;5011718;28;20219;-70
2022/11/15 07:00:16;;;;;;;32.80;15.83;;;6.40;99.90;;;;;;5015127;28;20215;-72
2022/11/15 07:02:43;;;;;;;29.87;17.80;;;6.30;99.90;;;;;;5018769;28;20454;-70
2022/11/15 07:05:11;;;;;;;28.03;15.40;;;6.30;99.90;;;;;;5021801;28;20271;-69
2022/11/15 07:07:37;;;;;;;28.77;16.47;;;6.30;99.90;;;;;;5018956;28;20203;-70
2022/11/15 07:10:07;;;;;;;26.40;14.77;;;6.30;99.90;;;;;;5009782;28;20235;-69
2022/11/15 07:12:35;;;;;;;28.33;14.10;;;6.20;99.90;;;;;;5013695;28;20552;-71
2022/11/15 07:15:01;;;;;;;29.27;14.30;;;6.20;99.90;;;;;;5018127;28;20682;-70
2022/11/15 07:17:28;;;;;;;24.87;14.07;;;6.20;99.90;;;;;;5018478;28;20266;-71
2022/11/15 07:19:55;;;;;;;24.03;14.33;;;6.10;99.90;;;;;;5017215;28;20214;-69
2022/11/15 07:22:22;;;;;;;28.33;14.67;;;6.10;99.90;;;;;;5009458;28;20211;-70
2022/11/15 07:24:49;;;;;;;24.83;14.40;;;6.10;99.90;;;;;;5017203;28;20206;-70
2022/11/15 07:27:17;;;;;;;29.52;18.13;;;6.10;99.90;;;;;;5017227;28;20458;-70
2022/11/15 07:29:44;;;;;;;24.37;14.97;;;6.00;99.90;;;;;;5012562;28;20211;-68
2022/11/15 07:32:10;;;;;;;23.87;14.17;;;6.00;99.90;;;;;;5010034;28;20239;-67
2022/11/15 07:34:37;;;;;;;29.43;15.90;;;6.00;99.90;;;;;;5009614;28;20230;-69
2022/11/15 07:37:04;;;;;;;27.33;15.23;;;6.10;99.90;;;;;;5008175;28;20210;-73
2022/11/15 07:39:31;;;;;;;28.73;15.97;;;6.10;99.90;;;;;;5007781;28;20615;-69
2022/11/15 07:44:42;;;;;;;31.77;15.83;;;6.10;99.90;;;;;;5010683;28;20218;-68
2022/11/15 07:47:08;;;;;;;28.70;15.90;;;6.10;99.90;;;;;;5012461;28;20210;-71
2022/11/15 07:49:37;;;;;;;28.63;15.17;;;6.10;99.90;;;;;;5005479;28;20206;-72
2022/11/15 07:52:04;;;;;;;28.67;15.47;;;6.10;99.90;;;;;;5006154;28;20322;-71
2022/11/15 07:54:31;;;;;;;27.53;14.57;;;6.10;99.90;;;;;;5011871;28;20564;-69
2022/11/15 07:56:58;;;;;;;27.30;14.00;;;6.10;99.90;;;;;;5005087;28;20207;-72
2022/11/15 07:59:24;;;;;;;29.40;14.73;;;6.10;99.90;;;;;;5012497;28;20226;-70
2022/11/15 08:01:52;;;;;;;27.33;15.37;;;6.10;99.90;;;;;;5008764;28;20207;-70
2022/11/15 08:04:20;;;;;;;26.57;15.80;;;6.20;99.90;;;;;;5012537;28;20211;-72
2022/11/15 08:06:46;;;;;;;28.00;16.63;;;6.20;99.90;;;;;;5011309;28;20290;-72
2022/11/15 08:09:13;;;;;;;29.53;15.83;;;6.20;99.90;;;;;;5008604;28;20835;-71
2022/11/15 08:11:40;;;;;;;30.57;16.67;;;6.30;99.90;;;;;;5008966;28;20235;-68
2022/11/15 08:14:07;;;;;;;30.83;16.57;;;6.30;99.90;;;;;;5005855;28;20207;-72
2022/11/15 08:16:34;;;;;;;29.30;15.33;;;6.30;99.90;;;;;;5004611;28;20203;-69
2022/11/15 08:19:02;;;;;;;25.83;15.47;;;6.30;99.90;;;;;;5007328;28;22058;-70
2022/11/15 08:21:29;;;;;;;25.30;15.23;;;6.30;99.90;;;;;;5011929;28;20583;-68
2022/11/15 08:23:56;;;;;;;29.80;15.93;;;6.30;99.90;;;;;;5008481;28;20204;-71
2022/11/15 08:26:24;;;;;;;27.40;15.40;;;6.30;99.90;;;;;;5002051;28;20216;-70
2022/11/15 08:28:51;;;;;;;27.30;15.13;;;6.30;99.90;;;;;;5012981;28;20851;-71
2022/11/15 08:31:19;;;;;;;27.07;14.73;;;6.30;99.90;;;;;;5015339;28;20218;-72
2022/11/15 08:33:46;;;;;;;27.77;15.60;;;6.40;99.90;;;;;;5005798;28;20267;-70
2022/11/15 08:36:16;;;;;;;29.23;15.60;;;6.40;99.90;;;;;;5006192;28;20207;-72
2022/11/15 08:38:43;;;;;;;24.43;14.80;;;6.50;99.90;;;;;;5009647;28;20590;-70
2022/11/15 08:41:14;;;;;;;25.67;15.17;;;6.50;99.90;;;;;;5009766;28;20211;-71
2022/11/15 08:43:40;;;;;;;24.70;14.30;;;6.50;99.90;;;;;;5009190;28;20579;-69
2022/11/15 08:46:11;;;;;;;24.87;14.07;;;6.50;99.90;;;;;;5013609;28;20218;-70
2022/11/15 08:48:38;;;;;;;23.37;14.10;;;6.50;99.90;;;;;;4988470;28;20199;-68
2022/11/15 08:51:05;;;;;;;26.53;15.37;;;6.50;99.90;;;;;;5017540;28;20227;-69
2022/11/15 08:53:35;;;;;;;25.53;16.10;;;6.50;99.90;;;;;;5015643;28;20209;-71
2022/11/15 08:56:02;;;;;;;33.37;18.37;;;6.50;99.90;;;;;;5013727;28;20207;-68
2022/11/15 08:58:30;;;;;;;25.87;15.33;;;6.60;99.90;;;;;;5015641;28;20663;-68
2022/11/15 09:00:57;;;;;;;24.17;15.10;;;6.60;99.90;;;;;;5007055;28;20227;-71
2022/11/15 09:03:26;;;;;;;24.10;15.03;;;6.60;99.90;;;;;;5019705;28;20256;-72
2022/11/15 09:05:56;;;;;;;28.50;15.33;;;6.60;99.90;;;;;;5016314;28;20230;-71
2022/11/15 09:08:23;;;;;;;27.13;15.80;;;6.60;99.90;;;;;;5018682;28;20206;-72
2022/11/15 09:10:52;;;;;;;26.37;14.20;;;6.60;99.90;;;;;;5018594;28;20294;-72
2022/11/15 09:13:18;;;;;;;26.30;15.83;;;6.60;99.90;;;;;;5021109;28;20545;-72
2022/11/15 09:15:45;;;;;;;29.93;16.57;;;6.70;99.90;;;;;;5010792;28;20573;-69
2022/11/15 09:18:12;;;;;;;25.23;15.63;;;6.70;99.90;;;;;;5012154;28;20583;-71
2022/11/15 09:20:39;;;;;;;31.33;16.60;;;6.70;99.90;;;;;;5015665;28;20230;-69
2022/11/15 09:23:07;;;;;;;29.00;16.10;;;6.70;99.90;;;;;;5014554;28;20214;-70
2022/11/15 09:25:33;;;;;;;25.73;14.63;;;6.80;99.90;;;;;;5015036;28;20209;-69
2022/11/15 09:28:06;;;;;;;25.10;15.20;;;6.80;99.90;;;;;;5019498;28;20250;-70
2022/11/15 09:30:33;;;;;;;24.73;15.60;;;6.80;99.90;;;;;;5026717;28;20235;-70
2022/11/15 09:33:01;;;;;;;26.30;16.03;;;6.70;99.90;;;;;;5017091;28;20646;-66
2022/11/15 09:35:27;;;;;;;27.67;15.63;;;6.80;99.90;;;;;;5018021;28;20188;-71
2022/11/15 09:37:56;;;;;;;32.10;20.67;;;6.80;99.90;;;;;;5016634;28;20459;-71
2022/11/15 09:40:23;;;;;;;25.50;16.50;;;6.80;99.90;;;;;;5013363;28;20687;-70
2022/11/15 09:43:07;;;;;;;44.43;26.00;;;6.80;99.90;;;;;;5012666;28;20256;-70
2022/11/15 09:45:44;;;;;;;27.53;15.67;;;6.80;99.90;;;;;;5001979;28;20203;-71
2022/11/15 09:48:36;;;;;;;35.33;17.40;;;6.80;99.90;;;;;;5011556;28;20218;-72
2022/11/15 09:51:05;;;;;;;26.33;15.93;;;6.90;99.90;;;;;;5007982;28;20220;-70
2022/11/15 09:53:36;;;;;;;35.97;21.25;;;6.80;99.90;;;;;;5011724;28;20454;-69
2022/11/15 09:56:06;;;;;;;27.30;17.13;;;6.80;99.90;;;;;;5011733;28;20287;-69
2022/11/15 09:58:44;;;;;;;26.20;16.00;;;6.90;99.90;;;;;;5013803;28;20199;-71
2022/11/15 10:01:20;;;;;;;27.13;15.63;;;6.90;99.90;;;;;;5007681;28;20234;-70
2022/11/15 10:03:47;;;;;;;27.20;15.87;;;6.90;99.90;;;;;;5020635;28;20198;-69
2022/11/15 10:06:24;;;;;;;30.07;17.67;;;6.90;99.90;;;;;;5025403;28;20674;-70
2022/11/15 10:08:59;;;;;;;29.67;16.33;;;6.90;99.90;;;;;;5021533;28;20230;-70
2022/11/15 10:11:29;;;;;;;24.73;14.77;;;6.90;99.90;;;;;;5019210;28;20237;-69
2022/11/15 10:14:01;;;;;;;29.33;17.00;;;6.90;99.90;;;;;;5019012;28;20203;-70
2022/11/15 10:16:53;;;;;;;26.43;15.57;;;6.90;99.90;;;;;;5019026;28;20256;-71
2022/11/15 10:19:26;;;;;;;24.93;15.17;;;6.90;99.90;;;;;;5003269;28;20218;-69
2022/11/15 10:22:14;;;;;;;27.50;16.00;;;6.80;99.90;;;;;;5013171;28;20205;-70
2022/11/15 10:24:43;;;;;;;24.63;15.57;;;6.80;99.90;;;;;;5014033;28;20203;-70
2022/11/15 10:27:13;;;;;;;27.97;15.90;;;6.90;99.90;;;;;;5016419;28;20214;-70
2022/11/15 10:29:51;;;;;;;29.17;17.37;;;6.90;99.90;;;;;;5021883;28;20581;-69
2022/11/15 10:32:20;;;;;;;29.10;17.37;;;7.00;99.90;;;;;;5022202;28;20270;-70
2022/11/15 10:34:48;;;;;;;25.77;17.07;;;7.00;99.90;;;;;;5021262;28;20211;-70
2022/11/15 10:37:27;;;;;;;27.97;16.53;;;7.00;99.90;;;;;;5014726;28;20219;-68
2022/11/15 10:40:05;;;;;;;29.77;16.70;;;7.10;99.90;;;;;;5016466;28;20297;-68
2022/11/15 10:42:32;;;;;;;31.03;17.03;;;7.10;99.90;;;;;;5019289;28;20211;-68
2022/11/15 10:45:00;;;;;;;27.50;16.13;;;7.20;99.90;;;;;;5014818;28;20207;-68
2022/11/15 10:47:30;;;;;;;26.00;15.87;;;7.20;99.90;;;;;;5017012;28;20207;-67
2022/11/15 10:50:03;;;;;;;25.73;15.77;;;7.20;99.90;;;;;;5015278;28;20207;-67
2022/11/15 10:52:32;;;;;;;25.00;15.57;;;7.20;99.90;;;;;;5014168;28;20227;-68
2022/11/15 10:55:04;;;;;;;31.77;18.07;;;7.20;99.90;;;;;;5006913;28;20233;-68
2022/11/15 10:57:34;;;;;;;29.03;16.67;;;7.20;99.90;;;;;;5017539;28;20590;-69
2022/11/15 11:00:07;;;;;;;24.73;16.53;;;7.10;99.90;;;;;;5019014;28;20226;-69
2022/11/15 11:02:37;;;;;;;25.80;16.27;;;7.20;99.90;;;;;;5009859;28;20199;-70
2022/11/15 11:05:07;;;;;;;27.73;17.67;;;7.20;99.90;;;;;;5018512;28;20333;-70
2022/11/15 11:07:37;;;;;;;26.87;17.33;;;7.30;99.90;;;;;;5012827;28;20192;-72
2022/11/15 11:10:17;;;;;;;25.00;15.67;;;7.40;99.90;;;;;;5011059;28;20234;-71
2022/11/15 11:12:44;;;;;;;29.77;16.27;;;7.40;99.90;;;;;;5019806;28;20214;-70
2022/11/15 11:15:14;;;;;;;28.07;16.03;;;7.40;99.90;;;;;;5018635;28;20711;-71
2022/11/15 11:17:53;;;;;;;30.20;17.77;;;7.40;99.90;;;;;;5019892;28;20206;-70
2022/11/15 11:20:27;;;;;;;29.47;17.50;;;7.40;99.90;;;;;;5017786;28;20214;-70
2022/11/15 11:23:18;;;;;;;28.53;18.13;;;7.40;99.90;;;;;;5018479;28;20191;-69
2022/11/15 11:25:52;;;;;;;25.70;16.73;;;7.50;99.90;;;;;;5018247;28;20250;-69
2022/11/15 11:28:38;;;;;;;30.10;16.77;;;7.50;99.90;;;;;;5023029;28;20269;-70
2022/11/15 11:31:30;;;;;;;29.73;16.53;;;7.50;99.90;;;;;;5024354;28;20217;-70
2022/11/15 11:34:08;;;;;;;30.37;17.60;;;7.60;99.90;;;;;;5013587;28;20203;-70
2022/11/15 11:36:43;;;;;;;33.10;17.53;;;7.60;99.90;;;;;;5019887;28;20213;-68
2022/11/15 11:39:25;;;;;;;31.30;18.30;;;7.60;99.90;;;;;;5017922;28;20209;-71
2022/11/15 11:42:01;;;;;;;29.73;18.27;;;7.70;99.90;;;;;;5014900;28;20257;-68
2022/11/15 11:44:41;;;;;;;30.97;18.10;;;7.70;99.90;;;;;;5021530;28;20203;-70
2022/11/15 11:47:12;;;;;;;31.77;18.60;;;7.70;99.90;;;;;;5014971;28;20297;-71
2022/11/15 11:49:46;;;;;;;29.67;18.07;;;7.70;99.90;;;;;;5014061;28;20656;-72
2022/11/15 11:52:18;;;;;;;30.03;18.10;;;7.80;99.90;;;;;;5014567;28;20227;-70
2022/11/15 11:54:55;;;;;;;31.90;18.77;;;7.80;99.90;;;;;;5010611;28;20212;-72
2022/11/15 11:57:30;;;;;;;32.80;19.70;;;7.80;99.90;;;;;;5019143;28;20199;-69
2022/11/15 12:00:02;;;;;;;36.20;18.93;;;7.70;99.90;;;;;;5017854;28;20230;-70
2022/11/15 12:02:35;;;;;;;31.40;19.03;;;7.70;99.90;;;;;;5011155;28;20265;-71
2022/11/15 12:05:10;;;;;;;30.70;18.50;;;7.60;99.90;;;;;;5012553;28;20211;-70
2022/11/15 12:07:40;;;;;;;30.33;19.23;;;7.60;99.90;;;;;;5010230;28;20202;-71
2022/11/15 12:10:21;;;;;;;34.40;20.93;;;7.60;99.90;;;;;;5010301;28;20227;-69
2022/11/15 12:12:56;;;;;;;39.90;22.30;;;7.60;99.90;;;;;;5016492;28;20215;-70
2022/11/15 12:15:26;;;;;;;35.20;21.77;;;7.70;99.90;;;;;;5015713;28;20632;-69
2022/11/15 12:17:56;;;;;;;39.33;22.23;;;7.70;99.90;;;;;;5012584;28;20294;-72
2022/11/15 12:20:27;;;;;;;39.37;21.97;;;7.70;99.90;;;;;;5009350;28;20200;-71
2022/11/15 12:22:57;;;;;;;37.20;21.83;;;7.70;99.90;;;;;;5017414;28;20554;-71
2022/11/15 12:25:29;;;;;;;37.13;22.23;;;7.70;99.90;;;;;;5015296;28;20204;-71
2022/11/15 12:28:01;;;;;;;38.20;22.87;;;7.70;99.90;;;;;;5017804;28;20205;-71
2022/11/15 12:30:41;;;;;;;36.27;22.03;;;7.70;99.90;;;;;;5019901;28;20214;-72
2022/11/15 12:33:37;;;;;;;31.67;18.90;;;7.70;99.90;;;;;;5014363;28;20226;-72
2022/11/15 12:36:06;;;;;;;34.33;21.23;;;7.70;99.90;;;;;;5019334;28;20235;-71
2022/11/15 12:38:55;;;;;;;40.97;22.23;;;7.70;99.90;;;;;;5019352;28;20211;-70
2022/11/15 12:41:23;;;;;;;38.07;21.57;;;7.70;99.90;;;;;;5015343;28;20221;-70
2022/11/15 12:43:50;;;;;;;34.10;20.47;;;7.80;99.90;;;;;;5015556;28;20199;-70
2022/11/15 12:46:24;;;;;;;34.17;21.93;;;7.80;99.90;;;;;;5015750;28;20215;-71
2022/11/15 12:48:55;;;;;;;36.87;21.13;;;7.90;99.90;;;;;;5020357;28;20294;-71
2022/11/15 12:51:41;;;;;;;35.00;21.07;;;7.90;99.90;;;;;;5016963;28;20204;-70
2022/11/15 12:54:38;;;;;;;34.37;21.20;;;7.90;99.90;;;;;;5016870;28;20542;-71
2022/11/15 12:57:33;;;;;;;34.90;20.97;;;7.90;99.90;;;;;;5013812;28;20208;-70
2022/11/15 13:00:03;;;;;;;32.77;21.07;;;7.90;99.90;;;;;;5016026;28;20234;-69
2022/11/15 13:02:32;;;;;;;33.40;19.63;;;7.90;99.90;;;;;;5014961;28;20612;-66
2022/11/15 13:05:34;;;;;;;34.93;20.53;;;8.00;99.90;;;;;;5012627;28;20218;-68
2022/11/15 13:08:03;;;;;;;40.28;27.05;;;7.90;99.90;;;;;;4993012;28;20467;-68